M I D A S
Marine Information and Data Acquisition System
Tripno 224 of the Zeeleeuw from 2002-03-01 07:40:00 to 2002-03-01 16:05:00
Back to CruiseResearch ActivitiesStationsMapUnderway DataData graphs

EquipmentUnitsComment
TimeDGPSUTC
LatitudeDGPSDM.mWGS84
LongitudeDGPSDM.mWGS84
TemperatureSBE03/SBE38deg celciusITS90
ConductivitySBE21S/mITS90
SalinitySBE21 Practical Salinity Units
ChlorophylAChelsea fluorimeterg/lCalibrated in Aceton
Missing or incorrect values are displayed as -999
Sea surface data collected by the RV Zeeleeuw from 2002-03-01 07:40:00 to 2002-03-01 16:05:00
Time Latitude Longitude Temperature Conductivity Salinity ChlorophylA
2002-03-01 07:50:00 51°14.388 2°55.029 18.762495 0.020685 0.114322  
2002-03-01 07:50:59 51°14.485 2°54.792 19.460351 0.020685 0.114368  
2002-03-01 07:52:00 51°14.651 2°54.577 18.79136 0.020685 0.114389  
2002-03-01 07:53:00 51°14.856 2°54.509 18.522999 0.020685 0.114452  
2002-03-01 07:54:00 51°15.054 2°54.536 19.000349 0.020685 0.114526  
2002-03-01 07:55:00 51°15.242 2°54.575 18.945367 0.020685 0.114571  
2002-03-01 07:56:00 51°15.432 2°54.472 18.67261 0.020685 0.1146  
2002-03-01 07:57:00 51°15.638 2°54.432 18.731928 0.020685 0.114642  
2002-03-01 07:58:00 51°15.849 2°54.426 17.910557 0.020685 0.114683  
2002-03-01 07:59:00 51°16.042 2°54.418 17.951655 0.020685 0.114706  
2002-03-01 08:00:00 51°16.124 2°54.48 18.244678 0.020685 0.11468  
2002-03-01 08:01:00 51°16.165 2°54.519 18.757758 0.020685 0.11475  
2002-03-01 08:02:00 51°16.194 2°54.534 18.38963 0.020586 0.11426  
2002-03-01 08:03:00 51°16.215 2°54.534 18.257457 0.020586 0.114289  
2002-03-01 08:04:00 51°16.233 2°54.527 18.002348 0.020586 0.114315  
2002-03-01 08:05:00 51°16.246 2°54.517 18.055542 0.020586 0.114336  
2002-03-01 08:06:00 51°16.258 2°54.505 17.594169 0.020586 0.114351  
2002-03-01 08:06:59 51°16.266 2°54.491 17.765894 0.020586 0.114361  
2002-03-01 08:07:59 51°16.274 2°54.475 14.749892 0.020586 0.114348  
2002-03-01 08:08:59 51°16.279 2°54.456 14.668845 0.020586 0.114377  
2002-03-01 08:09:59 51°16.284 2°54.435 14.653061 0.020586 0.114396  
2002-03-01 08:11:00 51°16.287 2°54.41 14.670637 0.020586 0.114417  
2002-03-01 08:12:00 51°16.289 2°54.384 14.724299 0.020586 0.114437  
2002-03-01 08:13:00 51°16.291 2°54.36 14.739979 0.020586 0.114463  
2002-03-01 08:14:00 51°16.291 2°54.335 14.71565 0.020586 0.114491  
2002-03-01 08:15:00 51°16.291 2°54.307 14.854475 0.020586 0.11452  
2002-03-01 08:16:00 51°16.29 2°54.279 14.80624 0.020586 0.114553  
2002-03-01 08:17:00 51°16.288 2°54.252 14.826916 0.020586 0.114585  
2002-03-01 08:18:00 51°16.286 2°54.222 14.922976 0.020586 0.114616  
2002-03-01 08:19:00 51°16.283 2°54.192 14.842398 0.020586 0.114645  
2002-03-01 08:20:00 51°16.28 2°54.162 15.011505 0.020586 0.114675  
2002-03-01 08:21:00 51°16.278 2°54.134 14.935039 0.020586 0.11471  
2002-03-01 08:22:00 51°16.275 2°54.105 7.695691 3.837712 29.730731  
2002-03-01 08:23:00 51°16.272 2°54.077 7.666718 3.419868 32.542255  
2002-03-01 08:23:59 51°16.269 2°54.049 7.654609 3.39112 32.366447  
2002-03-01 08:25:00 51°16.266 2°54.02 7.698024 3.392823 32.431682  
2002-03-01 08:26:00 51°16.332 2°53.898 7.692872 3.39072 32.431845  
2002-03-01 08:26:59 51°16.484 2°53.668 7.677511 3.399335 32.53652  
2002-03-01 08:28:00 51°16.655 2°53.429 8.916358 3.418768 32.7305  
2002-03-01 08:29:00 51°16.823 2°53.197 9.008621 3.41977 32.747412  
2002-03-01 08:29:59 51°16.973 2°52.995 8.659848 3.428986 32.832829  
2002-03-01 08:31:00 51°17.145 2°52.813 8.966271 3.44281 32.955398  
2002-03-01 08:32:00 51°17.331 2°52.668 8.852087 3.446116 32.993691  
2002-03-01 08:32:59 51°17.416 2°52.355 8.939722 3.449422 33.038314  
2002-03-01 08:33:59 51°17.436 2°51.99 8.792722 3.450424 33.038702  
2002-03-01 08:34:59 51°17.293 2°51.736 8.878147 3.455232 33.09221  
2002-03-01 08:35:59 51°17.074 2°51.824 8.49013 3.457737 33.110937  
2002-03-01 08:36:59 51°16.869 2°51.997 9.07502 3.458037 33.112551  
2002-03-01 08:37:59 51°16.668 2°52.177 8.717278 3.456134 33.096263  
2002-03-01 08:38:59 51°16.467 2°52.372 8.864498 3.450824 33.048491  
2002-03-01 08:39:59 51°16.275 2°52.58 8.868745 3.445715 33.003628  
2002-03-01 08:40:59 51°16.083 2°52.785 9.00162 3.423577 32.811427  
2002-03-01 08:41:59 51°15.896 2°52.988 8.880199 3.416264 32.746966  
2002-03-01 08:43:00 51°15.712 2°53.205 8.712973 3.409352 32.67813  
2002-03-01 08:43:59 51°15.537 2°53.419 8.750373 3.400036 32.586851  
2002-03-01 08:44:59 51°15.362 2°53.639 8.938673 3.386113 32.445021  
2002-03-01 08:45:59 51°15.19 2°53.862 9.018145 3.379501 32.378623  
2002-03-01 08:46:59 51°15.024 2°54.086 9.128851 3.374293 32.321714  
2002-03-01 08:47:59 51°14.879 2°54.291 8.880533 3.368383 32.266652  
2002-03-01 08:48:59 51°14.776 2°54.447 8.674641 3.362674 32.221436  
2002-03-01 08:49:59 51°14.691 2°54.572 8.586214 3.354861 32.149975  
2002-03-01 08:50:59 51°14.616 2°54.689 8.731484 3.347749 32.081326  
2002-03-01 08:52:00 51°14.553 2°54.784 9.027048 3.200525 30.557874  
2002-03-01 08:52:59 51°14.512 2°54.842 8.739997 2.965842 28.158771  
2002-03-01 08:53:59 51°14.479 2°54.884 8.754963 2.808909 26.56272  
2002-03-01 08:55:00 51°14.456 2°54.909 8.365722 2.651424 24.963478  
2002-03-01 08:55:59 51°14.465 2°54.937 8.624167 2.655226 25.014899  
2002-03-01 08:56:59 51°14.566 2°54.969 8.433698 2.7962 26.445676  
2002-03-01 08:57:59 51°14.717 2°54.876 8.583386 2.531796 23.74781  
2002-03-01 08:58:59 51°14.855 2°54.741 8.822101 3.183001 30.418767  
2002-03-01 08:59:59 51°14.941 2°54.607 9.1691 3.307384 31.679343  
2002-03-01 09:01:00 51°14.999 2°54.466 8.746692 3.334628 31.950352  
2002-03-01 09:02:00 51°15.015 2°54.328 8.910969 3.344143 32.044545  
2002-03-01 09:03:00 51°14.983 2°54.24 8.493106 3.350353 32.099762  
2002-03-01 09:03:59 51°14.94 2°54.198 8.963983 3.353859 32.127768  
2002-03-01 09:04:59 51°14.898 2°54.19 8.925895 3.354961 32.141016  
2002-03-01 09:06:00 51°14.865 2°54.206 9.236332 3.355462 32.144796  
2002-03-01 09:07:00 51°14.833 2°54.235 8.450609 3.356063 32.153495  
2002-03-01 09:07:59 51°14.801 2°54.268 8.682395 3.354861 32.143035  
2002-03-01 09:09:00 51°14.767 2°54.307 9.032237 3.353559 32.133823  
2002-03-01 09:10:00 51°14.733 2°54.347 8.951735 3.352156 32.122003  
2002-03-01 09:11:00 51°14.701 2°54.39 8.870511 3.349953 32.100895  
2002-03-01 09:11:59 51°14.676 2°54.436 8.805335 3.346447 32.066718  
2002-03-01 09:13:00 51°14.65 2°54.482 8.863782 3.232771 30.885567  
2002-03-01 09:14:00 51°14.625 2°54.526 8.347971 3.170383 30.241001  
2002-03-01 09:14:59 51°14.601 2°54.569 8.339551 3.136939 29.897631  
2002-03-01 09:16:00 51°14.579 2°54.611 8.906819 3.087977 29.398353  
2002-03-01 09:17:00 51°14.562 2°54.65 9.088102 2.891372 27.38249  
2002-03-01 09:18:00 51°14.547 2°54.687 9.15404 2.868053 27.151535  
2002-03-01 09:19:00 51°14.534 2°54.722 8.758023 2.882565 27.305652  
2002-03-01 09:20:00 51°14.524 2°54.758 8.396209 2.90018 27.485059  
2002-03-01 09:21:00 51°14.553 2°54.804 8.1631 2.869855 27.18473  
2002-03-01 09:22:00 51°14.588 2°54.648 8.768444 2.529696 23.719313  
2002-03-01 09:23:00 51°14.472 2°54.661 8.99519 3.008987 28.627154  
2002-03-01 09:24:00 51°14.408 2°54.912 8.766676 2.95463 28.02717  
2002-03-01 09:25:00 51°14.328 2°55.151 8.583961 3.068254 29.245014  
2002-03-01 09:26:00 51°14.24 2°55.295 8.559941 2.568702 24.127025  
2002-03-01 09:27:00 51°14.124 2°55.405 8.366636 1.729483 15.752745  
2002-03-01 09:28:00 51°13.996 2°55.5 8.296422 1.537079 13.865859  
2002-03-01 09:29:00 51°13.93 2°55.616 8.35206 1.375209 12.277916  
2002-03-01 09:30:00 51°13.948 2°55.665 8.110292 0.932186 8.072321  
2002-03-01 09:31:01 51°13.951 2°55.643 8.80801 1.146359 10.119185  
2002-03-01 09:32:00 51°14.047 2°55.521 8.657502 1.67042 15.16497  
2002-03-01 09:32:59 51°14.164 2°55.38 8.017654 1.364947 12.205679  
2002-03-01 09:34:00 51°14.285 2°55.208 8.540277 1.283261 11.421372  
2002-03-01 09:35:00 51°14.378 2°55.015 8.314476 1.588831 14.382524  
2002-03-01 09:35:59 51°14.366 2°54.701 7.995598 1.376605 12.335453  
2002-03-01 09:37:00 51°14.257 2°54.372 8.694743 2.566602 24.135075  
2002-03-01 09:38:00 51°14.156 2°54.038 8.477503 3.175291 30.352566  
2002-03-01 09:39:00 51°14.05 2°53.701 9.031666 3.293263 31.581031  
2002-03-01 09:40:00 51°13.943 2°53.362 8.742006 3.314496 31.793034  
2002-03-01 09:41:00 51°13.835 2°53.018 8.800462 3.322409 31.854207  
2002-03-01 09:42:00 51°13.725 2°52.67 9.053133 3.333626 31.955819  
2002-03-01 09:43:00 51°13.614 2°52.32 8.867266 3.340337 32.013321  
2002-03-01 09:43:59 51°13.506 2°51.974 8.677226 3.349151 32.09777  
2002-03-01 09:45:00 51°13.395 2°51.615 8.83743 3.34805 32.08144  
2002-03-01 09:46:00 51°13.283 2°51.262 8.883539 3.353358 32.132465  
2002-03-01 09:47:00 51°13.17 2°50.906 8.485713 3.331322 31.89304  
2002-03-01 09:48:00 51°13.056 2°50.554 8.685315 3.307885 31.64894  
2002-03-01 09:49:00 51°12.941 2°50.203 8.727658 3.311991 31.690214  
2002-03-01 09:50:00 51°12.828 2°49.852 8.733254 3.319904 31.768057  
2002-03-01 09:51:00 51°12.711 2°49.504 8.885256 3.326414 31.834841  
2002-03-01 09:52:00 51°12.596 2°49.156 8.638969 3.327416 31.852343  
2002-03-01 09:53:00 51°12.479 2°48.809 8.953975 3.329419 31.884311  
2002-03-01 09:54:00 51°12.359 2°48.464 8.666694 3.340938 32.012024  
2002-03-01 09:55:00 51°12.24 2°48.117 8.907678 3.34855 32.092923  
2002-03-01 09:56:00 51°12.12 2°47.772 8.754485 3.356564 32.17039  
2002-03-01 09:56:59 51°12.001 2°47.434 8.993142 3.359168 32.195759  
2002-03-01 09:58:00 51°11.882 2°47.084 9.031476 3.363575 32.241844  
2002-03-01 09:59:00 51°11.763 2°46.742 9.032761 3.363575 32.241844  
2002-03-01 10:00:00 51°11.643 2°46.396 9.306291 3.362373 32.225971  
2002-03-01 10:01:00 51°11.524 2°46.051 8.845451 3.364577 32.245532  
2002-03-01 10:02:00 51°11.405 2°45.706 8.926611 3.367582 32.271288  
2002-03-01 10:03:00 51°11.287 2°45.362 9.35761 3.369585 32.290262  
2002-03-01 10:04:00 51°11.169 2°45.019 8.814507 3.373492 32.331019  
2002-03-01 10:05:00 51°11.053 2°44.677 8.62891 3.377598 32.371583  
2002-03-01 10:06:00 51°10.936 2°44.338 8.803806 3.383809 32.42519  
2002-03-01 10:07:00 51°10.817 2°44.003 8.933286 3.389218 32.467922  
2002-03-01 10:08:00 51°10.698 2°43.673 8.86445 3.393725 32.504163  
2002-03-01 10:09:00 51°10.581 2°43.344 9.183065 3.39633 32.522499  
2002-03-01 10:10:00 51°10.465 2°43.018 9.028238 3.398433 32.540958  
2002-03-01 10:11:00 51°10.364 2°42.682 8.834231 3.399235 32.550253  
2002-03-01 10:12:00 51°10.269 2°42.341 8.801274 3.399936 32.555367  
2002-03-01 10:13:00 51°10.197 2°41.987 9.153897 3.401038 32.559283  
2002-03-01 10:14:00 51°10.135 2°41.625 9.046279 3.40254 32.572909  
2002-03-01 10:15:00 51°10.074 2°41.26 8.894894 3.405645 32.601222  
2002-03-01 10:16:00 51°10.015 2°40.89 8.698045 3.409252 32.636415  
2002-03-01 10:17:00 51°9.964 2°40.514 8.781827 3.412157 32.665719  
2002-03-01 10:17:59 51°9.914 2°40.144 9.254884 3.415262 32.69168  
2002-03-01 10:18:59 51°9.863 2°39.766 8.477503 3.417866 32.716225  
2002-03-01 10:19:59 51°9.812 2°39.387 8.861634 3.415562 32.690964  
2002-03-01 10:20:59 51°9.761 2°39.008 8.777525 3.416464 32.705235  
2002-03-01 10:21:59 51°9.71 2°38.627 8.894894 3.416564 32.710211  
2002-03-01 10:22:59 51°9.658 2°38.246 8.935765 3.417366 32.717945  
2002-03-01 10:23:59 51°9.607 2°37.864 8.897756 3.417366 32.717945  
2002-03-01 10:24:59 51°9.555 2°37.48 9.134793 3.415362 32.69509  
2002-03-01 10:25:59 51°9.502 2°37.095 8.94058 3.415362 32.691181  
2002-03-01 10:26:59 51°9.451 2°36.71 8.49877 3.414961 32.687706  
2002-03-01 10:27:59 51°9.4 2°36.325 8.737128 3.411856 32.655496  
2002-03-01 10:28:59 51°9.348 2°35.937 8.890218 3.409853 32.64202  
2002-03-01 10:29:59 51°9.296 2°35.55 8.97642 3.407749 32.615769  
2002-03-01 10:30:59 51°9.264 2°35.162 9.112973 3.374993 32.264995  
2002-03-01 10:32:00 51°9.361 2°34.813 8.774084 3.301073 31.515504  
2002-03-01 10:32:59 51°9.492 2°34.506 9.090527 3.335128 31.912782  
2002-03-01 10:33:59 51°9.628 2°34.197 8.685411 3.351755 32.079266  
2002-03-01 10:34:59 51°9.818 2°34.059 9.00062 3.353858 32.083146  
2002-03-01 10:35:59 51°9.984 2°34.244 8.795063 3.312892 31.652712  
2002-03-01 10:36:59 51°10.146 2°34.46 9.079064 3.40855 32.58376  
2002-03-01 10:37:59 51°10.304 2°34.683 8.577921 3.442309 32.917828  
2002-03-01 10:38:59 51°10.459 2°34.905 8.706705 3.443711 32.947662  
2002-03-01 10:39:59 51°10.623 2°35.113 8.937815 3.442109 32.939287  
2002-03-01 10:40:59 51°10.784 2°35.326 8.90286 3.443311 32.951274  
2002-03-01 10:41:59 51°10.949 2°35.533 8.874472 3.447318 32.985977  
2002-03-01 10:42:59 51°11.115 2°35.736 9.152852 3.450423 33.011881  
2002-03-01 10:43:59 51°11.279 2°35.944 8.997619 3.450924 33.013262  
2002-03-01 10:44:59 51°11.444 2°36.149 9.074116 3.450023 33.00526  
2002-03-01 10:45:59 51°11.608 2°36.354 8.877001 3.450223 33.005812  
2002-03-01 10:46:59 51°11.775 2°36.555 8.760318 3.450123 33.006324  
2002-03-01 10:47:59 51°11.941 2°36.755 8.957835 3.451225 33.016455  
2002-03-01 10:48:59 51°12.106 2°36.957 9.227078 3.451625 33.023077  
2002-03-01 10:49:59 51°12.271 2°37.158 9.426445 3.454531 33.055523  
2002-03-01 10:50:59 51°12.438 2°37.358 9.314444 3.45964 33.10745  
2002-03-01 10:52:00 51°12.605 2°37.561 8.897327 3.46535 33.157064  
2002-03-01 10:53:00 51°12.771 2°37.761 8.986806 3.469958 33.194159  
2002-03-01 10:54:00 51°12.934 2°37.966 9.23263 3.473565 33.221388  
2002-03-01 10:55:00 51°13.098 2°38.169 9.158173 3.475969 33.239798  
2002-03-01 10:55:59 51°13.26 2°38.37 8.844305 3.477171 33.25019  
2002-03-01 10:57:00 51°13.429 2°38.574 8.960933 3.478173 33.260832  
2002-03-01 10:58:00 51°13.621 2°38.701 9.291167 3.479475 33.273081  
2002-03-01 10:59:00 51°13.825 2°38.772 9.209657 3.483783 33.298208  
2002-03-01 10:59:59 51°14.019 2°38.714 9.094094 3.491797 33.345988  
2002-03-01 11:01:00 51°14.127 2°38.411 9.383467 3.497207 33.373219  
2002-03-01 11:02:00 51°14.117 2°38.045 9.2869 3.500513 33.394781  
2002-03-01 11:03:00 51°14.026 2°37.69 9.466604 3.506524 33.433088  
2002-03-01 11:04:00 51°13.92 2°37.34 9.245206 3.510331 33.448015  
2002-03-01 11:05:00 51°13.818 2°36.99 9.377311 3.512134 33.460761  
2002-03-01 11:06:00 51°13.716 2°36.643 9.473271 3.515139 33.480674  
2002-03-01 11:07:00 51°13.614 2°36.296 9.65034 3.518045 33.486818  
2002-03-01 11:08:00 51°13.503 2°35.958 9.629966 3.523455 33.524203  
2002-03-01 11:09:00 51°13.386 2°35.627 10.022545 3.52616 33.535344  
2002-03-01 11:09:59 51°13.277 2°35.298 9.624494 3.52646 33.536934  
2002-03-01 11:11:00 51°13.177 2°34.951 9.105936 3.524056 33.522623  
2002-03-01 11:12:00 51°13.075 2°34.611 9.850248 3.519848 33.501928  
2002-03-01 11:13:00 51°12.975 2°34.277 9.006811 3.516742 33.482559  
2002-03-01 11:13:59 51°12.876 2°33.95 8.981423 3.50472 33.398124  
2002-03-01 11:14:59 51°12.774 2°33.618 8.903242 3.501615 33.36999  
2002-03-01 11:16:00 51°12.671 2°33.285 9.1862 3.512635 33.435138  
2002-03-01 11:16:59 51°12.569 2°32.963 8.996 3.52105 33.496398  
2002-03-01 11:18:00 51°12.46 2°32.627 9.364193 3.524757 33.526071  
2002-03-01 11:18:59 51°12.355 2°32.298 9.034808 3.529065 33.55653  
2002-03-01 11:19:59 51°12.251 2°31.961 9.483673 3.533974 33.586971  
2002-03-01 11:20:59 51°12.152 2°31.625 9.218866 3.538282 33.615802  
2002-03-01 11:21:59 51°12.054 2°31.289 8.793677 3.540687 33.638814  
2002-03-01 11:22:59 51°11.957 2°30.953 8.836857 3.542089 33.648859  
2002-03-01 11:23:59 51°11.859 2°30.616 9.655385 3.542991 33.655997  
2002-03-01 11:24:59 51°11.761 2°30.281 9.227884 3.543792 33.661281  
2002-03-01 11:25:59 51°11.666 2°29.948 9.387349 3.544394 33.664449  
2002-03-01 11:27:00 51°11.57 2°29.61 9.27751 3.544995 33.668412  
2002-03-01 11:28:01 51°11.473 2°29.275 9.174658 3.546497 33.672354  
2002-03-01 11:29:01 51°11.381 2°28.947 8.719766 3.549503 33.69136  
2002-03-01 11:30:01 51°11.293 2°28.62 8.609267 3.551206 33.702179  
2002-03-01 11:30:59 51°11.229 2°28.298 9.623504 3.55311 33.710338  
2002-03-01 11:31:59 51°11.22 2°27.963 9.267503 3.550104 33.69055  
2002-03-01 11:32:59 51°11.204 2°27.639 9.349557 3.541688 33.611284  
2002-03-01 11:34:00 51°11.187 2°27.31 9.284197 3.53768 33.578515  
2002-03-01 11:34:59 51°11.17 2°26.991 9.280451 3.543491 33.58752  
2002-03-01 11:35:59 51°11.153 2°26.665 8.841823 3.5483 33.61919  
2002-03-01 11:36:59 51°11.137 2°26.334 8.694743 3.549502 33.645323  
2002-03-01 11:37:59 51°11.123 2°26.005 9.428243 3.548 33.654857  
2002-03-01 11:38:59 51°11.105 2°25.68 9.716086 3.550104 33.677046  
2002-03-01 11:39:59 51°11.154 2°25.373 9.140496 3.55351 33.696292  
2002-03-01 11:41:00 51°11.346 2°25.26 9.58042 3.557117 33.721608  
2002-03-01 11:42:00 51°11.565 2°25.257 8.898758 3.568238 33.799852  
2002-03-01 11:43:01 51°11.789 2°25.255 9.263139 3.574049 33.837192  
2002-03-01 11:44:00 51°12.005 2°25.26 8.911875 3.574851 33.841653  
2002-03-01 11:45:00 51°12.225 2°25.263 8.872897 3.575051 33.841377  
2002-03-01 11:46:00 51°12.446 2°25.266 9.603452 3.575352 33.846928  
2002-03-01 11:47:01 51°12.671 2°25.269 9.131846 3.574149 33.839042  
2002-03-01 11:48:01 51°12.891 2°25.292 9.445274 3.573248 33.83989  
2002-03-01 11:49:01 51°13.06 2°25.521 9.369782 3.574751 33.846168  
2002-03-01 11:50:00 51°13.198 2°25.807 9.059319 3.57445 33.84539  
2002-03-01 11:51:01 51°13.344 2°26.101 8.867361 3.573849 33.837468  
2002-03-01 11:52:00 51°13.479 2°26.394 9.713778 3.573548 33.839077  
2002-03-01 11:53:01 51°13.611 2°26.707 9.688099 3.57415 33.845408  
2002-03-01 11:54:00 51°13.734 2°27.012 9.298611 3.575953 33.854053  
2002-03-01 11:55:00 51°13.865 2°27.317 9.534993 3.575953 33.858032  
2002-03-01 11:56:01 51°13.995 2°27.633 9.65397 3.575753 33.850351  
2002-03-01 11:57:01 51°14.125 2°27.942 9.487029 3.574951 33.841913  
2002-03-01 11:58:01 51°14.255 2°28.253 9.562857 3.573448 33.835635  
2002-03-01 11:59:01 51°14.386 2°28.567 9.128043 3.572647 33.829581  
2002-03-01 12:00:01 51°14.519 2°28.879 9.484524 3.572246 33.826156  
2002-03-01 12:01:01 51°14.651 2°29.193 9.386734 3.572546 33.824549  
2002-03-01 12:02:01 51°14.782 2°29.507 9.558938 3.574751 33.831851  
2002-03-01 12:03:01 51°14.915 2°29.821 9.060223 3.576253 33.834154  
2002-03-01 12:04:01 51°15.049 2°30.135 8.893606 3.576854 33.834122  
2002-03-01 12:05:01 51°15.183 2°30.449 9.548596 3.575452 33.828105  
2002-03-01 12:06:01 51°15.317 2°30.765 9.235051 3.573748 33.812566  
2002-03-01 12:07:01 51°15.452 2°31.082 9.189667 3.571745 33.800217  
2002-03-01 12:08:01 51°15.585 2°31.401 9.371676 3.570142 33.792876  
2002-03-01 12:09:01 51°15.722 2°31.718 9.407421 3.567937 33.775233  
2002-03-01 12:10:01 51°15.858 2°32.037 9.552327 3.566234 33.765242  
2002-03-01 12:11:01 51°15.997 2°32.353 9.012954 3.566034 33.766308  
2002-03-01 12:11:59 51°16.128 2°32.665 9.486273 3.566635 33.768667  
2002-03-01 12:12:59 51°16.264 2°32.987 9.274096 3.567637 33.776833  
2002-03-01 12:13:59 51°16.285 2°33.357 9.249334 3.567637 33.769687  
2002-03-01 12:14:59 51°16.105 2°33.617 8.982709 3.565934 33.766842  
2002-03-01 12:16:00 51°15.892 2°33.836 9.594344 3.563529 33.763758  
2002-03-01 12:16:59 51°15.689 2°34.044 8.792435 3.560924 33.748229  
2002-03-01 12:18:00 51°15.481 2°34.236 9.261431 3.555614 33.71927  
2002-03-01 12:19:01 51°15.343 2°34.523 9.523986 3.556015 33.714757  
2002-03-01 12:20:00 51°15.466 2°34.81 9.508818 3.559822 33.717563  
2002-03-01 12:21:00 51°15.651 2°35.058 9.176321 3.560824 33.728115  
2002-03-01 12:22:00 51°15.826 2°35.324 9.20263 3.559922 33.7337  
2002-03-01 12:23:00 51°16.001 2°35.59 8.78651 3.559622 33.730533  
2002-03-01 12:24:00 51°16.175 2°35.855 9.371203 3.560123 33.727871  
2002-03-01 12:25:00 51°16.351 2°36.118 9.252417 3.559822 33.726292  
2002-03-01 12:26:00 51°16.525 2°36.384 9.090004 3.559622 33.726563  
2002-03-01 12:27:00 51°16.7 2°36.648 9.632843 3.55882 33.726852  
2002-03-01 12:28:00 51°16.876 2°36.913 9.469394 3.55862 33.723152  
2002-03-01 12:29:00 51°17.05 2°37.179 8.654389 3.55842 33.726599  
2002-03-01 12:30:00 51°17.244 2°37.354 9.400889 3.55852 33.724478  
2002-03-01 12:31:00 51°17.391 2°37.136 9.482302 3.55862 33.728711  
2002-03-01 12:32:01 51°17.508 2°36.847 9.117395 3.560724 33.736586  
2002-03-01 12:32:59 51°17.616 2°36.572 9.584621 3.563128 33.746828  
2002-03-01 12:33:59 51°17.724 2°36.291 9.597459 3.566535 33.767612  
2002-03-01 12:34:59 51°17.832 2°36.018 9.222806 3.56924 33.784973  
2002-03-01 12:35:59 51°17.939 2°35.75 9.15518 3.570342 33.793397  
2002-03-01 12:36:59 51°18.05 2°35.477 8.967605 3.571745 33.801011  
2002-03-01 12:38:00 51°18.166 2°35.2 9.861201 3.573548 33.811252  
2002-03-01 12:39:00 51°18.283 2°34.928 9.528946 3.575051 33.819121  
2002-03-01 12:40:00 51°18.401 2°34.657 9.535418 3.577155 33.826163  
2002-03-01 12:41:01 51°18.592 2°34.522 9.293728 3.578057 33.834058  
2002-03-01 12:42:00 51°18.789 2°34.724 8.963411 3.577456 33.836473  
2002-03-01 12:43:00 51°18.961 2°35.006 9.192611 3.575251 33.836329  
2002-03-01 12:44:00 51°19.117 2°35.316 9.503856 3.574951 33.83078  
2002-03-01 12:45:01 51°19.269 2°35.641 9.700869 3.574951 33.829986  
2002-03-01 12:46:00 51°19.42 2°35.947 9.351452 3.575552 33.836312  
2002-03-01 12:47:00 51°19.571 2°36.264 9.204482 3.575352 33.832614  
2002-03-01 12:47:59 51°19.72 2°36.577 9.283912 3.575953 33.834965  
2002-03-01 12:49:00 51°19.875 2°36.897 8.860775 3.576554 33.836522  
2002-03-01 12:50:00 51°20.027 2°37.211 9.371061 3.576955 33.835176  
2002-03-01 12:51:00 51°20.179 2°37.527 9.764823 3.577456 33.836473  
2002-03-01 12:52:00 51°20.329 2°37.843 9.475115 3.57966 33.850123  
2002-03-01 12:53:00 51°20.482 2°38.154 9.522427 3.583868 33.877685  
2002-03-01 12:54:01 51°20.634 2°38.472 9.648454 3.587074 33.901852  
2002-03-01 12:55:01 51°20.785 2°38.786 8.875284 3.588777 33.91419  
2002-03-01 12:56:01 51°20.941 2°39.093 9.494498 3.590581 33.930761  
2002-03-01 12:57:01 51°21.149 2°39.26 9.542551 3.593086 33.959481  
2002-03-01 12:58:01 51°21.374 2°39.37 9.428148 3.593987 33.957017  
2002-03-01 12:59:01 51°21.595 2°39.501 9.279644 3.594288 33.954605  
2002-03-01 13:00:00 51°21.815 2°39.627 8.897088 3.594689 33.955633  
2002-03-01 13:01:00 51°22.037 2°39.754 9.40955 3.595991 33.962953  
2002-03-01 13:02:00 51°22.26 2°39.884 9.527387 3.596793 33.963417  
2002-03-01 13:03:01 51°22.491 2°40.001 9.411112 3.596292 33.95736  
2002-03-01 13:04:00 51°22.717 2°40.105 9.56536 3.594588 33.939469  
2002-03-01 13:05:01 51°22.952 2°40.204 9.568901 3.595691 33.952636  
2002-03-01 13:06:01 51°23.184 2°40.304 9.381384 3.597294 33.966293  
2002-03-01 13:07:01 51°23.416 2°40.393 9.810372 3.600801 33.995167  
2002-03-01 13:08:00 51°23.643 2°40.504 9.108266 3.604107 34.029897  
2002-03-01 13:09:01 51°23.876 2°40.623 9.770895 3.60571 34.050724  
2002-03-01 13:10:01 51°24.105 2°40.736 9.847334 3.608817 34.076975  
2002-03-01 13:11:01 51°24.336 2°40.849 9.528994 3.609618 34.090186  
2002-03-01 13:12:00 51°24.564 2°40.922 9.367651 3.611222 34.111825  
2002-03-01 13:13:00 51°24.797 2°40.959 9.056607 3.611422 34.121923  
2002-03-01 13:14:00 51°25.027 2°40.928 9.622277 3.613727 34.152552  
2002-03-01 13:15:00 51°25.261 2°40.929 9.339087 3.61543 34.176071  
2002-03-01 13:16:01 51°25.496 2°40.921 9.917578 3.621943 34.209305  
2002-03-01 13:17:00 51°25.722 2°40.986 9.86764 3.624848 34.210213  
2002-03-01 13:18:00 51°25.932 2°41.18 9.550438 3.623846 34.191693  
2002-03-01 13:19:00 51°26.136 2°41.399 9.292969 3.624447 34.189211  
2002-03-01 13:20:01 51°26.298 2°41.713 9.692576 3.625449 34.191736  
2002-03-01 13:21:01 51°26.449 2°42.036 9.997598 3.62575 34.193292  
2002-03-01 13:22:01 51°26.596 2°42.363 9.382615 3.626952 34.201115  
2002-03-01 13:23:00 51°26.741 2°42.684 9.654489 3.627754 34.207928  
2002-03-01 13:24:00 51°26.877 2°43.024 9.271345 3.628956 34.211753  
2002-03-01 13:25:01 51°27.008 2°43.376 9.893859 3.630058 34.220918  
2002-03-01 13:26:00 51°27.043 2°43.753 9.515623 3.63076 34.222681  
2002-03-01 13:27:00 51°26.956 2°44.114 9.706005 3.631561 34.233488  
2002-03-01 13:28:00 51°26.818 2°44.426 9.695498 3.632263 34.243246  
2002-03-01 13:29:00 51°26.664 2°44.708 9.448254 3.63066 34.240822  
2002-03-01 13:30:00 51°26.48 2°44.923 8.971798 3.621743 34.211203  
2002-03-01 13:31:00 51°26.286 2°45.102 9.931383 3.613226 34.154487  
2002-03-01 13:32:01 51°26.093 2°45.298 9.71571 3.609819 34.113863  
2002-03-01 13:33:01 51°25.892 2°45.441 9.720608 3.608316 34.08528  
2002-03-01 13:34:00 51°25.696 2°45.594 9.801481 3.608216 34.081034  
2002-03-01 13:35:00 51°25.498 2°45.761 9.194368 3.608015 34.074937  
2002-03-01 13:36:00 51°25.297 2°45.908 9.654725 3.608716 34.079114  
2002-03-01 13:37:00 51°25.099 2°46.07 9.580137 3.609117 34.084123  
2002-03-01 13:38:00 51°24.897 2°46.227 9.695875 3.610119 34.093853  
2002-03-01 13:39:00 51°24.726 2°46.455 9.502107 3.609518 34.087536  
2002-03-01 13:40:00 51°24.765 2°46.821 9.469583 3.609919 34.099733  
2002-03-01 13:41:00 51°24.888 2°47.178 8.920841 3.609919 34.087756  
2002-03-01 13:42:00 51°25.011 2°47.537 9.266507 3.609919 34.089353  
2002-03-01 13:43:00 51°25.132 2°47.897 9.793719 3.607514 34.070471  
2002-03-01 13:44:00 51°25.255 2°48.258 9.445794 3.607614 34.076312  
2002-03-01 13:45:00 51°25.385 2°48.612 9.32634 3.608416 34.08793  
2002-03-01 13:46:00 51°25.513 2°48.971 8.85476 3.607514 34.086438  
2002-03-01 13:47:00 51°25.643 2°49.331 9.083821 3.606212 34.079933  
2002-03-01 13:48:00 51°25.771 2°49.691 9.429142 3.604408 34.065762  
2002-03-01 13:49:00 51°25.899 2°50.052 9.8131 3.604709 34.069721  
2002-03-01 13:50:00 51°26.085 2°50.266 9.456862 3.604208 34.076436  
2002-03-01 13:51:00 51°26.276 2°50.112 9.811642 3.603807 34.069024  
2002-03-01 13:52:00 51°26.468 2°49.932 9.389101 3.60521 34.077385  
2002-03-01 13:52:59 51°26.666 2°49.773 9.071119 3.604709 34.069721  
2002-03-01 13:54:00 51°26.871 2°49.608 9.194605 3.605009 34.074479  
2002-03-01 13:55:00 51°27.073 2°49.444 9.655432 3.604108 34.066594  
2002-03-01 13:56:00 51°27.276 2°49.281 9.310747 3.605611 34.0816  
2002-03-01 13:57:01 51°27.48 2°49.113 9.697005 3.604909 34.071029  
2002-03-01 13:58:00 51°27.678 2°48.956 9.658214 3.606813 34.087851  
2002-03-01 13:59:00 51°27.881 2°48.798 9.652509 3.606613 34.090539  
2002-03-01 14:00:00 51°28.081 2°48.639 9.299559 3.606212 34.092718  
2002-03-01 14:01:00 51°28.286 2°48.487 9.607227 3.607715 34.111726  
2002-03-01 14:02:00 51°28.498 2°48.364 9.375133 3.610521 34.143643  
2002-03-01 14:03:00 51°28.701 2°48.537 9.497334 3.617434 34.197149  
2002-03-01 14:04:01 51°28.795 2°48.918 9.302783 3.626552 34.25294  
2002-03-01 14:05:00 51°28.87 2°49.304 8.969845 3.629157 34.26749  
2002-03-01 14:06:01 51°28.949 2°49.704 9.458234 3.62545 34.250977  
2002-03-01 14:07:01 51°29.027 2°50.099 9.745898 3.622043 34.2328  
2002-03-01 14:08:02 51°29.105 2°50.497 9.736056 3.62054 34.225814  
2002-03-01 14:09:01 51°29.181 2°50.881 8.913783 3.618436 34.218918  
2002-03-01 14:10:01 51°29.257 2°51.273 9.375465 3.617635 34.218507  
2002-03-01 14:11:01 51°29.333 2°51.663 9.291689 3.617234 34.215091  
2002-03-01 14:12:02 51°29.388 2°52.062 9.708502 3.61523 34.200417  
2002-03-01 14:13:01 51°29.285 2°52.381 9.186247 3.613827 34.194475  
2002-03-01 14:14:02 51°29.087 2°52.55 9.669199 3.609419 34.168911  
2002-03-01 14:15:01 51°28.895 2°52.705 9.262238 3.605611 34.139232  
2002-03-01 14:16:01 51°28.695 2°52.851 9.275945 3.605511 34.124551  
2002-03-01 14:17:02 51°28.494 2°53 9.6319 3.606413 34.119628  
2002-03-01 14:18:01 51°28.3 2°53.141 8.738754 3.607815 34.13119  
2002-03-01 14:19:02 51°28.094 2°53.251 8.809395 3.606312 34.11297  
2002-03-01 14:20:01 51°27.898 2°53.378 9.795083 3.603006 34.100578  
2002-03-01 14:21:01 51°27.699 2°53.514 9.402309 3.6001 34.079586  
2002-03-01 14:22:01 51°27.501 2°53.642 9.476439 3.598597 34.06856  
2002-03-01 14:23:01 51°27.303 2°53.777 9.161879 3.598397 34.073653  
2002-03-01 14:24:01 51°27.107 2°53.919 9.514961 3.598096 34.066485  
2002-03-01 14:25:01 51°26.908 2°54.063 9.654489 3.597796 34.06572  
2002-03-01 14:26:01 51°26.711 2°54.204 9.10546 3.597095 34.065535  
2002-03-01 14:27:02 51°26.51 2°54.353 9.136124 3.596894 34.072232  
2002-03-01 14:28:01 51°26.31 2°54.49 8.861682 3.595792 34.067825  
2002-03-01 14:29:01 51°26.111 2°54.641 9.326387 3.593588 34.048596  
2002-03-01 14:30:01 51°25.908 2°54.774 9.471616 3.591885 34.04025  
2002-03-01 14:31:00 51°25.711 2°54.902 8.84674 3.591384 34.038171  
2002-03-01 14:32:00 51°25.515 2°55.041 9.241504 3.590582 34.029721  
2002-03-01 14:33:00 51°25.314 2°55.165 9.674525 3.587977 33.995861  
2002-03-01 14:34:00 51°25.116 2°55.306 9.019716 3.586975 33.978908  
2002-03-01 14:35:01 51°24.912 2°55.429 9.257162 3.585071 33.956455  
2002-03-01 14:36:01 51°24.71 2°55.562 8.942916 3.583869 33.939001  
2002-03-01 14:37:02 51°24.504 2°55.704 9.408698 3.580462 33.908702  
2002-03-01 14:38:01 51°24.305 2°55.754 9.320132 3.577656 33.877561  
2002-03-01 14:39:01 51°24.103 2°55.705 9.342687 3.573548 33.843852  
2002-03-01 14:40:00 51°23.902 2°55.765 9.354862 3.568038 33.813652  
2002-03-01 14:41:01 51°23.692 2°55.828 9.335249 3.564231 33.791031  
2002-03-01 14:42:00 51°23.489 2°55.883 9.303589 3.562828 33.797736  
2002-03-01 14:43:00 51°23.281 2°55.946 9.163875 3.562628 33.802793  
2002-03-01 14:44:01 51°23.069 2°56.001 8.693642 3.562127 33.79671  
2002-03-01 14:45:01 51°22.864 2°56.072 8.655491 3.56353 33.813104  
2002-03-01 14:46:00 51°22.662 2°56.123 8.856097 3.564933 33.836679  
2002-03-01 14:47:00 51°22.449 2°56.183 9.092145 3.560124 33.826608  
2002-03-01 14:48:01 51°22.231 2°56.242 9.305817 3.553311 33.78096  
2002-03-01 14:49:00 51°22.026 2°56.305 9.222663 3.550105 33.762233  
2002-03-01 14:50:00 51°21.817 2°56.368 8.793677 3.549404 33.755615  
2002-03-01 14:51:00 51°21.603 2°56.433 9.059176 3.546598 33.73074  
2002-03-01 14:52:00 51°21.39 2°56.497 9.266839 3.532572 33.633377  
2002-03-01 14:53:00 51°21.18 2°56.558 9.01405 3.526962 33.58753  
2002-03-01 14:54:00 51°20.973 2°56.622 8.767632 3.520149 33.53768  
2002-03-01 14:55:01 51°20.762 2°56.674 8.604714 3.518646 33.526538  
2002-03-01 14:56:01 51°20.552 2°56.735 9.028143 3.517745 33.525736  
2002-03-01 14:57:01 51°20.341 2°56.788 9.027953 3.516142 33.516709  
2002-03-01 14:58:00 51°20.133 2°56.838 9.45568 3.512936 33.49149  
2002-03-01 14:59:00 51°19.92 2°56.897 8.874329 3.517243 33.472789  
2002-03-01 15:00:00 51°19.715 2°56.884 9.071833 3.50452 33.420588  
2002-03-01 15:01:00 51°19.517 2°56.8 8.862541 3.503919 33.42295  
2002-03-01 15:02:01 51°19.32 2°56.68 9.471664 3.500012 33.393439  
2002-03-01 15:03:01 51°19.177 2°56.456 8.49877 3.495003 33.350644  
2002-03-01 15:04:00 51°19.092 2°56.158 8.489266 3.491997 33.320365  
2002-03-01 15:05:00 51°19.025 2°55.842 9.090385 3.491797 33.316656  
2002-03-01 15:06:01 51°18.959 2°55.525 8.694073 3.494302 33.338453  
2002-03-01 15:07:01 51°18.889 2°55.22 8.909395 3.495404 33.34538  
2002-03-01 15:08:01 51°18.825 2°54.903 8.803185 3.496505 33.349136  
2002-03-01 15:09:00 51°18.755 2°54.599 8.929853 3.497006 33.339394  
2002-03-01 15:10:01 51°18.69 2°54.285 9.046375 3.496104 33.325886  
2002-03-01 15:11:01 51°18.621 2°53.977 9.333685 3.498409 33.340792  
2002-03-01 15:12:01 51°18.555 2°53.665 8.961791 3.503418 33.377204  
2002-03-01 15:13:00 51°18.491 2°53.356 9.021002 3.50993 33.425535  
2002-03-01 15:14:01 51°18.425 2°53.04 8.948112 3.512234 33.439615  
2002-03-01 15:15:01 51°18.343 2°52.736 9.231112 3.512434 33.44332  
2002-03-01 15:16:00 51°18.256 2°52.439 8.930902 3.517043 33.472256  
2002-03-01 15:17:01 51°18.123 2°52.221 8.92313 3.518946 33.485252  
2002-03-01 15:18:01 51°17.917 2°52.222 8.933477 3.51574 33.466407  
2002-03-01 15:19:01 51°17.704 2°52.259 9.062507 3.507826 33.412777  
2002-03-01 15:20:00 51°17.499 2°52.287 8.806481 3.502216 33.381109  
2002-03-01 15:21:01 51°17.289 2°52.343 8.91736 3.499511 33.362757  
2002-03-01 15:22:00 51°17.093 2°52.472 8.735406 3.498709 33.357436  
2002-03-01 15:23:00 51°16.899 2°52.638 8.935336 3.500412 33.359635  
2002-03-01 15:24:01 51°16.702 2°52.788 8.836761 3.498709 33.343975  
2002-03-01 15:25:01 51°16.525 2°52.994 8.965365 3.492198 33.312985  
2002-03-01 15:26:01 51°16.343 2°53.193 8.989188 3.485786 33.252153  
2002-03-01 15:27:00 51°16.159 2°53.377 9.055417 3.473564 33.14157  
2002-03-01 15:28:01 51°15.969 2°53.571 8.762708 3.462143 33.037855  
2002-03-01 15:29:01 51°15.777 2°53.746 9.067123 3.453728 32.955747  
2002-03-01 15:30:01 51°15.591 2°53.94 8.794872 3.439803 32.817617  
2002-03-01 15:31:01 51°15.398 2°54.102 8.311203 0.057381 0.415093  
2002-03-01 15:32:01 51°15.21 2°54.287 8.507841 0.054125 0.390052  
2002-03-01 15:33:00 51°15.021 2°54.449 8.613292 0.052053 0.373919  
2002-03-01 15:34:01 51°14.83 2°54.631 8.774275 0.050672 0.362963  
2002-03-01 15:35:01 51°14.638 2°54.808 8.903767 0.048699 0.347664  
2002-03-01 15:36:01 51°14.449 2°54.967 9.044851 0.047022 0.334598  
2002-03-01 15:37:00 51°14.313 2°55.165 9.160881 0.045739 0.324492  
2002-03-01 15:38:00 51°14.211 2°55.338 9.251136 0.044851 0.317296  
2002-03-01 15:39:01 51°14.095 2°55.433 9.406285 0.044259 0.31232  
2002-03-01 15:40:05 51°13.998 2°55.503 9.513969 0.043667 0.307355  
2002-03-01 15:41:05 51°13.889 2°55.578 9.652037 0.043174 0.303131  
2002-03-01 15:42:05 51°13.782 2°55.668 9.770236 0.042681 0.298941  
2002-03-01 15:43:05 51°13.729 2°55.759 9.819967 0.042286 0.295497  
2002-03-01 15:44:05 51°13.704 2°55.832 9.952602 0.042089 0.293484  
2002-03-01 15:45:05 51°13.689 2°55.895 10.078222 0.042089 0.292919  
2002-03-01 15:46:05 51°13.688 2°55.903 10.184755 0.041596 0.288797  
2002-03-01 15:47:05 51°13.688 2°55.904 10.284671 0.041201 0.2854